sensor_id;sensor_type;location;lat;lon;timestamp;temperature;humidity
45983;DHT22;31711;47.158;7.346;2023-04-25T00:01:47;9.30;99.90
45983;DHT22;31711;47.158;7.346;2023-04-25T00:04:13;9.20;99.90
45983;DHT22;31711;47.158;7.346;2023-04-25T00:06:39;9.20;99.90
45983;DHT22;31711;47.158;7.346;2023-04-25T00:09:05;9.20;99.90
45983;DHT22;31711;47.158;7.346;2023-04-25T00:11:35;9.10;99.90
45983;DHT22;31711;47.158;7.346;2023-04-25T00:14:03;9.10;99.90
45983;DHT22;31711;47.158;7.346;2023-04-25T00:16:30;9.10;99.90
45983;DHT22;31711;47.158;7.346;2023-04-25T00:18:59;9.00;99.90
45983;DHT22;31711;47.158;7.346;2023-04-25T00:21:25;9.00;99.90
45983;DHT22;31711;47.158;7.346;2023-04-25T00:23:53;9.00;99.90
45983;DHT22;31711;47.158;7.346;2023-04-25T00:26:19;9.00;99.90
45983;DHT22;31711;47.158;7.346;2023-04-25T00:28:47;9.00;99.90
45983;DHT22;31711;47.158;7.346;2023-04-25T00:31:13;9.10;99.90
45983;DHT22;31711;47.158;7.346;2023-04-25T00:33:39;9.00;99.90
45983;DHT22;31711;47.158;7.346;2023-04-25T00:36:06;8.90;99.90
45983;DHT22;31711;47.158;7.346;2023-04-25T00:38:32;8.90;99.90
45983;DHT22;31711;47.158;7.346;2023-04-25T00:40:58;8.90;99.90
45983;DHT22;31711;47.158;7.346;2023-04-25T00:43:27;8.90;99.90
45983;DHT22;31711;47.158;7.346;2023-04-25T00:45:53;8.90;99.90
45983;DHT22;31711;47.158;7.346;2023-04-25T00:48:22;8.90;99.90
45983;DHT22;31711;47.158;7.346;2023-04-25T00:50:53;8.90;99.90
45983;DHT22;31711;47.158;7.346;2023-04-25T00:53:23;8.80;99.90
45983;DHT22;31711;47.158;7.346;2023-04-25T00:55:50;8.90;99.90
45983;DHT22;31711;47.158;7.346;2023-04-25T00:58:20;9.00;99.90
45983;DHT22;31711;47.158;7.346;2023-04-25T01:00:48;9.00;99.90
45983;DHT22;31711;47.158;7.346;2023-04-25T01:03:18;9.00;99.90
45983;DHT22;31711;47.158;7.346;2023-04-25T01:05:47;9.00;99.90
45983;DHT22;31711;47.158;7.346;2023-04-25T01:08:14;9.00;99.90
45983;DHT22;31711;47.158;7.346;2023-04-25T01:10:40;9.00;99.90
45983;DHT22;31711;47.158;7.346;2023-04-25T01:13:06;8.90;99.90
45983;DHT22;31711;47.158;7.346;2023-04-25T01:15:33;8.80;99.90
45983;DHT22;31711;47.158;7.346;2023-04-25T01:17:59;8.80;99.90
45983;DHT22;31711;47.158;7.346;2023-04-25T01:20:26;8.70;99.90
45983;DHT22;31711;47.158;7.346;2023-04-25T01:22:54;8.60;99.90
45983;DHT22;31711;47.158;7.346;2023-04-25T01:25:22;8.40;99.90
45983;DHT22;31711;47.158;7.346;2023-04-25T01:27:48;8.30;99.90
45983;DHT22;31711;47.158;7.346;2023-04-25T01:30:14;8.20;99.90
45983;DHT22;31711;47.158;7.346;2023-04-25T01:32:41;8.10;99.90
45983;DHT22;31711;47.158;7.346;2023-04-25T01:35:10;8.20;99.90
45983;DHT22;31711;47.158;7.346;2023-04-25T01:37:41;8.10;99.90
45983;DHT22;31711;47.158;7.346;2023-04-25T01:40:09;8.20;99.90
45983;DHT22;31711;47.158;7.346;2023-04-25T01:42:37;8.10;99.90
45983;DHT22;31711;47.158;7.346;2023-04-25T01:45:04;8.10;99.90
45983;DHT22;31711;47.158;7.346;2023-04-25T01:47:30;8.10;99.90
45983;DHT22;31711;47.158;7.346;2023-04-25T01:49:56;8.10;99.90
45983;DHT22;31711;47.158;7.346;2023-04-25T01:52:22;8.10;99.90
45983;DHT22;31711;47.158;7.346;2023-04-25T01:54:49;8.10;99.90
45983;DHT22;31711;47.158;7.346;2023-04-25T01:57:15;8.10;99.90
45983;DHT22;31711;47.158;7.346;2023-04-25T01:59:42;8.10;99.90
45983;DHT22;31711;47.158;7.346;2023-04-25T02:02:09;8.10;99.90
45983;DHT22;31711;47.158;7.346;2023-04-25T02:04:35;8.10;99.90
45983;DHT22;31711;47.158;7.346;2023-04-25T02:07:00;8.10;99.90
45983;DHT22;31711;47.158;7.346;2023-04-25T02:09:26;8.10;99.90
45983;DHT22;31711;47.158;7.346;2023-04-25T02:11:53;8.10;99.90
45983;DHT22;31711;47.158;7.346;2023-04-25T02:14:19;8.10;99.90
45983;DHT22;31711;47.158;7.346;2023-04-25T02:16:44;8.10;99.90
45983;DHT22;31711;47.158;7.346;2023-04-25T02:19:11;8.00;99.90
45983;DHT22;31711;47.158;7.346;2023-04-25T02:21:37;8.00;99.90
45983;DHT22;31711;47.158;7.346;2023-04-25T02:24:04;8.00;99.90
45983;DHT22;31711;47.158;7.346;2023-04-25T02:26:30;7.90;99.90
45983;DHT22;31711;47.158;7.346;2023-04-25T02:28:56;7.90;99.90
45983;DHT22;31711;47.158;7.346;2023-04-25T02:31:23;7.90;99.90
45983;DHT22;31711;47.158;7.346;2023-04-25T02:33:48;7.90;99.90
45983;DHT22;31711;47.158;7.346;2023-04-25T02:36:15;7.90;99.90
45983;DHT22;31711;47.158;7.346;2023-04-25T02:38:41;8.10;99.90
45983;DHT22;31711;47.158;7.346;2023-04-25T02:41:07;8.10;99.90
45983;DHT22;31711;47.158;7.346;2023-04-25T02:43:33;8.20;99.90
45983;DHT22;31711;47.158;7.346;2023-04-25T02:45:59;8.20;99.90
45983;DHT22;31711;47.158;7.346;2023-04-25T02:48:25;8.20;99.90
45983;DHT22;31711;47.158;7.346;2023-04-25T02:50:51;8.20;99.90
45983;DHT22;31711;47.158;7.346;2023-04-25T02:53:17;8.10;99.90
45983;DHT22;31711;47.158;7.346;2023-04-25T02:55:43;8.00;99.90
45983;DHT22;31711;47.158;7.346;2023-04-25T02:58:09;7.90;99.90
45983;DHT22;31711;47.158;7.346;2023-04-25T03:00:35;7.70;99.90
45983;DHT22;31711;47.158;7.346;2023-04-25T03:03:01;7.60;99.90
45983;DHT22;31711;47.158;7.346;2023-04-25T03:05:27;7.50;99.90
45983;DHT22;31711;47.158;7.346;2023-04-25T03:07:53;7.40;99.90
45983;DHT22;31711;47.158;7.346;2023-04-25T03:10:19;7.40;99.90
45983;DHT22;31711;47.158;7.346;2023-04-25T03:12:45;7.50;99.90
45983;DHT22;31711;47.158;7.346;2023-04-25T03:15:11;7.60;99.90
45983;DHT22;31711;47.158;7.346;2023-04-25T03:17:37;7.70;99.90
45983;DHT22;31711;47.158;7.346;2023-04-25T03:20:04;7.80;99.90
45983;DHT22;31711;47.158;7.346;2023-04-25T03:22:31;7.80;99.90
45983;DHT22;31711;47.158;7.346;2023-04-25T03:24:57;7.80;99.90
45983;DHT22;31711;47.158;7.346;2023-04-25T03:27:22;7.80;99.90
45983;DHT22;31711;47.158;7.346;2023-04-25T03:29:48;7.70;99.90
45983;DHT22;31711;47.158;7.346;2023-04-25T03:32:15;7.70;99.90
45983;DHT22;31711;47.158;7.346;2023-04-25T03:34:40;7.60;99.90
45983;DHT22;31711;47.158;7.346;2023-04-25T03:37:07;7.50;99.90
45983;DHT22;31711;47.158;7.346;2023-04-25T03:39:32;7.50;99.90
45983;DHT22;31711;47.158;7.346;2023-04-25T03:41:58;7.40;99.90
45983;DHT22;31711;47.158;7.346;2023-04-25T03:44:24;7.40;99.90
45983;DHT22;31711;47.158;7.346;2023-04-25T03:46:50;7.30;99.90
45983;DHT22;31711;47.158;7.346;2023-04-25T03:49:16;7.30;99.90
45983;DHT22;31711;47.158;7.346;2023-04-25T03:51:42;7.30;99.90
45983;DHT22;31711;47.158;7.346;2023-04-25T03:54:08;7.30;99.90
45983;DHT22;31711;47.158;7.346;2023-04-25T03:56:34;7.40;99.90
45983;DHT22;31711;47.158;7.346;2023-04-25T03:59:00;7.40;99.90
45983;DHT22;31711;47.158;7.346;2023-04-25T04:01:27;7.50;99.90
45983;DHT22;31711;47.158;7.346;2023-04-25T04:03:53;7.50;99.90
45983;DHT22;31711;47.158;7.346;2023-04-25T04:06:19;7.50;99.90
45983;DHT22;31711;47.158;7.346;2023-04-25T04:08:46;7.50;99.90
45983;DHT22;31711;47.158;7.346;2023-04-25T04:11:12;7.60;99.90
45983;DHT22;31711;47.158;7.346;2023-04-25T04:13:38;7.60;99.90
45983;DHT22;31711;47.158;7.346;2023-04-25T04:16:04;7.60;99.90
45983;DHT22;31711;47.158;7.346;2023-04-25T04:18:30;7.60;99.90
45983;DHT22;31711;47.158;7.346;2023-04-25T04:20:56;7.60;99.90
45983;DHT22;31711;47.158;7.346;2023-04-25T04:23:24;7.60;99.90
45983;DHT22;31711;47.158;7.346;2023-04-25T04:25:50;7.60;99.90
45983;DHT22;31711;47.158;7.346;2023-04-25T04:28:16;7.60;99.90
45983;DHT22;31711;47.158;7.346;2023-04-25T04:30:42;7.60;99.90
45983;DHT22;31711;47.158;7.346;2023-04-25T04:33:11;7.60;99.90
45983;DHT22;31711;47.158;7.346;2023-04-25T04:35:37;7.60;99.90
45983;DHT22;31711;47.158;7.346;2023-04-25T04:38:03;7.60;99.90
45983;DHT22;31711;47.158;7.346;2023-04-25T04:40:29;7.60;99.90
45983;DHT22;31711;47.158;7.346;2023-04-25T04:42:58;7.60;99.90
45983;DHT22;31711;47.158;7.346;2023-04-25T04:45:24;7.50;99.90
45983;DHT22;31711;47.158;7.346;2023-04-25T04:47:50;7.60;99.90
45983;DHT22;31711;47.158;7.346;2023-04-25T04:50:16;7.50;99.90
45983;DHT22;31711;47.158;7.346;2023-04-25T04:52:43;7.40;99.90
45983;DHT22;31711;47.158;7.346;2023-04-25T04:55:09;7.40;99.90
45983;DHT22;31711;47.158;7.346;2023-04-25T04:57:35;7.30;99.90
45983;DHT22;31711;47.158;7.346;2023-04-25T05:00:02;7.30;99.90
45983;DHT22;31711;47.158;7.346;2023-04-25T05:02:30;7.20;99.90
45983;DHT22;31711;47.158;7.346;2023-04-25T05:04:56;7.20;99.90
45983;DHT22;31711;47.158;7.346;2023-04-25T05:07:22;7.10;99.90
45983;DHT22;31711;47.158;7.346;2023-04-25T05:09:48;7.10;99.90
45983;DHT22;31711;47.158;7.346;2023-04-25T05:12:14;7.10;99.90
45983;DHT22;31711;47.158;7.346;2023-04-25T05:14:40;7.20;99.90
45983;DHT22;31711;47.158;7.346;2023-04-25T05:17:06;7.20;99.90
45983;DHT22;31711;47.158;7.346;2023-04-25T05:19:34;7.20;99.90
45983;DHT22;31711;47.158;7.346;2023-04-25T05:22:00;7.20;99.90
45983;DHT22;31711;47.158;7.346;2023-04-25T05:24:26;7.20;99.90
45983;DHT22;31711;47.158;7.346;2023-04-25T05:26:52;7.10;99.90
45983;DHT22;31711;47.158;7.346;2023-04-25T05:29:18;7.20;99.90
45983;DHT22;31711;47.158;7.346;2023-04-25T05:31:44;7.20;99.90
45983;DHT22;31711;47.158;7.346;2023-04-25T05:34:10;7.30;99.90
45983;DHT22;31711;47.158;7.346;2023-04-25T05:36:36;7.40;99.90
45983;DHT22;31711;47.158;7.346;2023-04-25T05:39:02;7.40;99.90
45983;DHT22;31711;47.158;7.346;2023-04-25T05:41:29;7.20;99.90
45983;DHT22;31711;47.158;7.346;2023-04-25T05:43:55;7.20;99.90
45983;DHT22;31711;47.158;7.346;2023-04-25T05:46:21;7.30;99.90
45983;DHT22;31711;47.158;7.346;2023-04-25T05:48:47;7.20;99.90
45983;DHT22;31711;47.158;7.346;2023-04-25T05:51:13;7.20;99.90
45983;DHT22;31711;47.158;7.346;2023-04-25T05:53:39;7.20;99.90
45983;DHT22;31711;47.158;7.346;2023-04-25T05:56:05;7.10;99.90
45983;DHT22;31711;47.158;7.346;2023-04-25T05:58:31;7.10;99.90
45983;DHT22;31711;47.158;7.346;2023-04-25T06:00:57;7.10;99.90
45983;DHT22;31711;47.158;7.346;2023-04-25T06:03:23;7.00;99.90
45983;DHT22;31711;47.158;7.346;2023-04-25T06:05:49;7.00;99.90
45983;DHT22;31711;47.158;7.346;2023-04-25T06:08:16;7.00;99.90
45983;DHT22;31711;47.158;7.346;2023-04-25T06:10:41;6.90;99.90
45983;DHT22;31711;47.158;7.346;2023-04-25T06:13:07;6.80;99.90
45983;DHT22;31711;47.158;7.346;2023-04-25T06:15:33;6.90;99.90
45983;DHT22;31711;47.158;7.346;2023-04-25T06:18:00;6.90;99.90
45983;DHT22;31711;47.158;7.346;2023-04-25T06:20:26;7.00;99.90
45983;DHT22;31711;47.158;7.346;2023-04-25T06:22:52;7.10;99.90
45983;DHT22;31711;47.158;7.346;2023-04-25T06:25:18;7.10;99.90
45983;DHT22;31711;47.158;7.346;2023-04-25T06:27:44;7.10;99.90
45983;DHT22;31711;47.158;7.346;2023-04-25T06:30:10;7.10;99.90
45983;DHT22;31711;47.158;7.346;2023-04-25T06:32:38;7.30;99.90
45983;DHT22;31711;47.158;7.346;2023-04-25T06:35:05;7.40;99.90
45983;DHT22;31711;47.158;7.346;2023-04-25T06:37:31;7.50;99.90
45983;DHT22;31711;47.158;7.346;2023-04-25T06:39:57;7.50;99.90
45983;DHT22;31711;47.158;7.346;2023-04-25T06:42:23;7.60;99.90
45983;DHT22;31711;47.158;7.346;2023-04-25T06:44:49;7.80;99.90
45983;DHT22;31711;47.158;7.346;2023-04-25T06:47:15;7.80;99.90
45983;DHT22;31711;47.158;7.346;2023-04-25T06:49:41;7.90;99.90
45983;DHT22;31711;47.158;7.346;2023-04-25T06:52:07;8.00;99.90
45983;DHT22;31711;47.158;7.346;2023-04-25T06:54:34;7.90;99.90
45983;DHT22;31711;47.158;7.346;2023-04-25T06:57:00;8.00;99.90
45983;DHT22;31711;47.158;7.346;2023-04-25T06:59:26;8.10;99.90
45983;DHT22;31711;47.158;7.346;2023-04-25T07:02:00;8.20;99.90
45983;DHT22;31711;47.158;7.346;2023-04-25T07:04:30;8.10;99.90
45983;DHT22;31711;47.158;7.346;2023-04-25T07:06:56;8.00;99.90
45983;DHT22;31711;47.158;7.346;2023-04-25T08:16:42;9.30;99.90
45983;DHT22;31711;47.158;7.346;2023-04-25T08:19:09;9.30;99.90
45983;DHT22;31711;47.158;7.346;2023-04-25T08:21:36;9.40;99.90
45983;DHT22;31711;47.158;7.346;2023-04-25T08:24:02;9.40;99.90
45983;DHT22;31711;47.158;7.346;2023-04-25T08:26:29;9.70;99.90
45983;DHT22;31711;47.158;7.346;2023-04-25T08:28:55;10.10;99.90
45983;DHT22;31711;47.158;7.346;2023-04-25T08:31:21;9.90;99.90
45983;DHT22;31711;47.158;7.346;2023-04-25T08:33:46;10.00;99.90
45983;DHT22;31711;47.158;7.346;2023-04-25T08:36:12;9.80;99.90
45983;DHT22;31711;47.158;7.346;2023-04-25T08:38:38;9.80;99.90
45983;DHT22;31711;47.158;7.346;2023-04-25T08:41:05;9.60;99.90
45983;DHT22;31711;47.158;7.346;2023-04-25T08:43:32;9.50;99.90
45983;DHT22;31711;47.158;7.346;2023-04-25T08:45:59;9.50;99.90
45983;DHT22;31711;47.158;7.346;2023-04-25T08:48:27;9.10;99.90
45983;DHT22;31711;47.158;7.346;2023-04-25T08:50:55;8.60;99.90
45983;DHT22;31711;47.158;7.346;2023-04-25T08:53:26;8.40;99.90
45983;DHT22;31711;47.158;7.346;2023-04-25T08:55:57;8.20;99.90
45983;DHT22;31711;47.158;7.346;2023-04-25T08:58:24;7.90;99.90
45983;DHT22;31711;47.158;7.346;2023-04-25T09:00:51;7.90;99.90
45983;DHT22;31711;47.158;7.346;2023-04-25T09:03:18;8.00;99.90
45983;DHT22;31711;47.158;7.346;2023-04-25T09:05:44;8.20;99.90
45983;DHT22;31711;47.158;7.346;2023-04-25T09:08:10;8.00;99.90
45983;DHT22;31711;47.158;7.346;2023-04-25T09:10:37;8.00;99.90
45983;DHT22;31711;47.158;7.346;2023-04-25T09:13:08;8.20;99.90
45983;DHT22;31711;47.158;7.346;2023-04-25T09:15:55;8.30;99.90
45983;DHT22;31711;47.158;7.346;2023-04-25T09:18:30;8.30;99.90
45983;DHT22;31711;47.158;7.346;2023-04-25T09:21:04;8.60;99.90
45983;DHT22;31711;47.158;7.346;2023-04-25T09:23:31;8.60;99.90
45983;DHT22;31711;47.158;7.346;2023-04-25T09:26:07;8.80;99.90
45983;DHT22;31711;47.158;7.346;2023-04-25T09:28:33;8.80;99.90
45983;DHT22;31711;47.158;7.346;2023-04-25T09:31:01;9.30;99.90
45983;DHT22;31711;47.158;7.346;2023-04-25T09:33:29;9.40;99.90
45983;DHT22;31711;47.158;7.346;2023-04-25T09:36:02;9.50;99.90
45983;DHT22;31711;47.158;7.346;2023-04-25T09:38:30;9.50;99.90
45983;DHT22;31711;47.158;7.346;2023-04-25T09:40:56;9.60;99.90
45983;DHT22;31711;47.158;7.346;2023-04-25T09:43:23;10.10;99.90
45983;DHT22;31711;47.158;7.346;2023-04-25T09:45:50;10.40;99.90
45983;DHT22;31711;47.158;7.346;2023-04-25T09:48:22;10.50;99.90
45983;DHT22;31711;47.158;7.346;2023-04-25T09:53:36;11.10;99.90
45983;DHT22;31711;47.158;7.346;2023-04-25T09:56:06;11.30;99.90
45983;DHT22;31711;47.158;7.346;2023-04-25T09:58:33;11.10;99.90
45983;DHT22;31711;47.158;7.346;2023-04-25T10:01:04;11.20;99.90
45983;DHT22;31711;47.158;7.346;2023-04-25T10:03:31;11.40;99.90
45983;DHT22;31711;47.158;7.346;2023-04-25T10:06:02;11.80;99.90
45983;DHT22;31711;47.158;7.346;2023-04-25T10:08:32;12.10;99.90
45983;DHT22;31711;47.158;7.346;2023-04-25T10:11:06;12.00;99.90
45983;DHT22;31711;47.158;7.346;2023-04-25T10:13:33;12.10;99.90
45983;DHT22;31711;47.158;7.346;2023-04-25T10:16:01;11.20;99.90
45983;DHT22;31711;47.158;7.346;2023-04-25T10:18:29;11.50;99.90
45983;DHT22;31711;47.158;7.346;2023-04-25T10:20:58;11.70;99.90
45983;DHT22;31711;47.158;7.346;2023-04-25T10:23:25;11.20;99.90
45983;DHT22;31711;47.158;7.346;2023-04-25T10:25:52;11.40;99.90
45983;DHT22;31711;47.158;7.346;2023-04-25T10:28:20;11.60;99.90
45983;DHT22;31711;47.158;7.346;2023-04-25T10:31:07;11.50;99.90
45983;DHT22;31711;47.158;7.346;2023-04-25T10:33:37;11.70;99.90
45983;DHT22;31711;47.158;7.346;2023-04-25T10:36:18;11.60;99.90
45983;DHT22;31711;47.158;7.346;2023-04-25T10:38:45;11.50;99.90
45983;DHT22;31711;47.158;7.346;2023-04-25T10:41:13;11.00;99.90
45983;DHT22;31711;47.158;7.346;2023-04-25T10:43:43;10.80;99.90
45983;DHT22;31711;47.158;7.346;2023-04-25T10:46:25;10.70;99.90
45983;DHT22;31711;47.158;7.346;2023-04-25T10:51:29;10.50;99.90
45983;DHT22;31711;47.158;7.346;2023-04-25T10:56:23;10.40;99.90
45983;DHT22;31711;47.158;7.346;2023-04-25T10:58:51;10.60;99.90
45983;DHT22;31711;47.158;7.346;2023-04-25T11:01:21;10.50;99.90
45983;DHT22;31711;47.158;7.346;2023-04-25T11:03:57;10.50;99.90
45983;DHT22;31711;47.158;7.346;2023-04-25T11:06:33;10.70;99.90
45983;DHT22;31711;47.158;7.346;2023-04-25T11:09:03;10.80;99.90
45983;DHT22;31711;47.158;7.346;2023-04-25T11:11:36;11.10;99.90
45983;DHT22;31711;47.158;7.346;2023-04-25T11:14:02;11.50;99.90
45983;DHT22;31711;47.158;7.346;2023-04-25T11:16:28;11.50;99.90
45983;DHT22;31711;47.158;7.346;2023-04-25T11:18:59;11.30;99.90
45983;DHT22;31711;47.158;7.346;2023-04-25T11:21:26;11.30;99.90
45983;DHT22;31711;47.158;7.346;2023-04-25T11:23:54;11.60;99.90
45983;DHT22;31711;47.158;7.346;2023-04-25T11:26:22;11.80;99.90
45983;DHT22;31711;47.158;7.346;2023-04-25T11:28:49;11.50;99.90
45983;DHT22;31711;47.158;7.346;2023-04-25T11:31:15;11.50;99.90
45983;DHT22;31711;47.158;7.346;2023-04-25T11:33:41;11.40;99.90
45983;DHT22;31711;47.158;7.346;2023-04-25T11:36:08;11.70;99.90
45983;DHT22;31711;47.158;7.346;2023-04-25T11:38:35;11.70;99.90
45983;DHT22;31711;47.158;7.346;2023-04-25T11:41:01;11.30;99.90
45983;DHT22;31711;47.158;7.346;2023-04-25T11:43:27;11.50;99.90
45983;DHT22;31711;47.158;7.346;2023-04-25T11:45:53;11.40;99.90
45983;DHT22;31711;47.158;7.346;2023-04-25T11:48:19;11.50;99.90
45983;DHT22;31711;47.158;7.346;2023-04-25T11:50:46;11.80;99.90
45983;DHT22;31711;47.158;7.346;2023-04-25T11:53:12;11.90;99.90
45983;DHT22;31711;47.158;7.346;2023-04-25T11:55:38;12.40;99.90
45983;DHT22;31711;47.158;7.346;2023-04-25T11:58:05;12.50;99.90
45983;DHT22;31711;47.158;7.346;2023-04-25T12:00:32;12.60;99.90
45983;DHT22;31711;47.158;7.346;2023-04-25T12:02:58;12.60;99.90
45983;DHT22;31711;47.158;7.346;2023-04-25T12:05:26;12.30;99.90
45983;DHT22;31711;47.158;7.346;2023-04-25T12:07:52;12.30;99.90
45983;DHT22;31711;47.158;7.346;2023-04-25T12:10:20;12.10;99.90
45983;DHT22;31711;47.158;7.346;2023-04-25T12:12:47;12.10;99.90
45983;DHT22;31711;47.158;7.346;2023-04-25T12:15:18;12.00;99.90
45983;DHT22;31711;47.158;7.346;2023-04-25T12:17:51;12.20;99.90
45983;DHT22;31711;47.158;7.346;2023-04-25T12:20:20;12.50;99.90
45983;DHT22;31711;47.158;7.346;2023-04-25T12:22:47;12.40;99.90
45983;DHT22;31711;47.158;7.346;2023-04-25T12:25:35;12.40;99.90
45983;DHT22;31711;47.158;7.346;2023-04-25T12:30:55;12.30;99.90
45983;DHT22;31711;47.158;7.346;2023-04-25T12:33:22;12.20;99.90
45983;DHT22;31711;47.158;7.346;2023-04-25T12:35:48;12.30;99.90
45983;DHT22;31711;47.158;7.346;2023-04-25T12:38:25;12.10;99.90
45983;DHT22;31711;47.158;7.346;2023-04-25T12:40:51;12.00;99.90
45983;DHT22;31711;47.158;7.346;2023-04-25T12:43:17;11.90;99.90
45983;DHT22;31711;47.158;7.346;2023-04-25T12:45:44;12.40;99.90
45983;DHT22;31711;47.158;7.346;2023-04-25T12:48:10;12.70;99.90
45983;DHT22;31711;47.158;7.346;2023-04-25T12:50:36;13.30;99.90
45983;DHT22;31711;47.158;7.346;2023-04-25T12:53:02;13.60;99.90
45983;DHT22;31711;47.158;7.346;2023-04-25T12:55:29;14.10;99.90
45983;DHT22;31711;47.158;7.346;2023-04-25T12:57:55;14.40;99.90
45983;DHT22;31711;47.158;7.346;2023-04-25T13:00:21;14.50;99.90
45983;DHT22;31711;47.158;7.346;2023-04-25T13:02:47;14.50;99.90
45983;DHT22;31711;47.158;7.346;2023-04-25T13:05:13;14.30;99.90
45983;DHT22;31711;47.158;7.346;2023-04-25T13:07:39;14.90;99.90
45983;DHT22;31711;47.158;7.346;2023-04-25T13:10:05;15.10;99.90
45983;DHT22;31711;47.158;7.346;2023-04-25T13:12:32;14.80;99.90
45983;DHT22;31711;47.158;7.346;2023-04-25T13:14:58;15.10;99.90
45983;DHT22;31711;47.158;7.346;2023-04-25T13:17:24;15.30;99.90
45983;DHT22;31711;47.158;7.346;2023-04-25T13:19:50;15.20;99.90
45983;DHT22;31711;47.158;7.346;2023-04-25T13:22:16;14.90;99.90
45983;DHT22;31711;47.158;7.346;2023-04-25T13:24:44;15.50;99.90
45983;DHT22;31711;47.158;7.346;2023-04-25T13:27:10;15.20;99.10
45983;DHT22;31711;47.158;7.346;2023-04-25T13:29:36;14.80;99.80
45983;DHT22;31711;47.158;7.346;2023-04-25T13:32:03;14.90;99.90
45983;DHT22;31711;47.158;7.346;2023-04-25T13:34:30;15.30;99.90
45983;DHT22;31711;47.158;7.346;2023-04-25T13:36:56;15.10;99.20
45983;DHT22;31711;47.158;7.346;2023-04-25T13:39:22;15.00;99.30
45983;DHT22;31711;47.158;7.346;2023-04-25T13:41:48;14.80;98.50
45983;DHT22;31711;47.158;7.346;2023-04-25T13:44:14;14.40;99.60
45983;DHT22;31711;47.158;7.346;2023-04-25T13:46:40;14.50;99.80
45983;DHT22;31711;47.158;7.346;2023-04-25T13:49:06;14.30;98.70
45983;DHT22;31711;47.158;7.346;2023-04-25T13:51:32;14.00;99.90
45983;DHT22;31711;47.158;7.346;2023-04-25T13:53:58;13.50;99.90
45983;DHT22;31711;47.158;7.346;2023-04-25T13:56:24;13.60;99.90
45983;DHT22;31711;47.158;7.346;2023-04-25T13:58:50;13.60;99.90
45983;DHT22;31711;47.158;7.346;2023-04-25T14:01:17;13.30;99.90
45983;DHT22;31711;47.158;7.346;2023-04-25T14:03:44;13.50;99.90
45983;DHT22;31711;47.158;7.346;2023-04-25T14:06:10;13.50;99.90
45983;DHT22;31711;47.158;7.346;2023-04-25T14:08:36;13.10;99.90
45983;DHT22;31711;47.158;7.346;2023-04-25T14:11:02;12.90;99.90
45983;DHT22;31711;47.158;7.346;2023-04-25T14:13:28;12.50;99.90
45983;DHT22;31711;47.158;7.346;2023-04-25T14:15:55;12.30;99.90
45983;DHT22;31711;47.158;7.346;2023-04-25T14:18:21;11.80;99.90
45983;DHT22;31711;47.158;7.346;2023-04-25T14:20:47;11.60;99.90
45983;DHT22;31711;47.158;7.346;2023-04-25T14:23:13;11.40;99.90
45983;DHT22;31711;47.158;7.346;2023-04-25T14:25:39;11.30;99.90
45983;DHT22;31711;47.158;7.346;2023-04-25T14:28:07;11.30;99.90
45983;DHT22;31711;47.158;7.346;2023-04-25T14:30:33;11.60;99.90
45983;DHT22;31711;47.158;7.346;2023-04-25T14:32:59;11.80;99.90
45983;DHT22;31711;47.158;7.346;2023-04-25T14:35:25;11.90;99.90
45983;DHT22;31711;47.158;7.346;2023-04-25T14:37:53;11.90;99.90
45983;DHT22;31711;47.158;7.346;2023-04-25T14:40:18;12.10;99.90
45983;DHT22;31711;47.158;7.346;2023-04-25T14:42:48;12.40;99.90
45983;DHT22;31711;47.158;7.346;2023-04-25T14:45:15;12.60;99.90
45983;DHT22;31711;47.158;7.346;2023-04-25T14:47:41;12.70;99.90
45983;DHT22;31711;47.158;7.346;2023-04-25T14:50:07;12.90;99.90
45983;DHT22;31711;47.158;7.346;2023-04-25T14:52:34;13.10;99.90
45983;DHT22;31711;47.158;7.346;2023-04-25T14:55:00;12.80;99.90
45983;DHT22;31711;47.158;7.346;2023-04-25T14:57:32;12.60;99.90
45983;DHT22;31711;47.158;7.346;2023-04-25T14:59:58;12.70;99.90
45983;DHT22;31711;47.158;7.346;2023-04-25T15:02:24;12.70;99.90
45983;DHT22;31711;47.158;7.346;2023-04-25T15:04:51;12.70;99.90
45983;DHT22;31711;47.158;7.346;2023-04-25T15:07:17;12.90;99.90
45983;DHT22;31711;47.158;7.346;2023-04-25T15:09:43;13.20;99.90
45983;DHT22;31711;47.158;7.346;2023-04-25T15:12:09;13.30;99.90
45983;DHT22;31711;47.158;7.346;2023-04-25T15:14:36;13.40;99.90
45983;DHT22;31711;47.158;7.346;2023-04-25T15:17:02;13.40;99.90
45983;DHT22;31711;47.158;7.346;2023-04-25T15:19:28;13.10;99.90
45983;DHT22;31711;47.158;7.346;2023-04-25T15:21:54;13.00;99.90
45983;DHT22;31711;47.158;7.346;2023-04-25T15:24:20;12.90;99.90
45983;DHT22;31711;47.158;7.346;2023-04-25T15:26:47;12.70;99.90
45983;DHT22;31711;47.158;7.346;2023-04-25T15:29:13;12.70;99.90
45983;DHT22;31711;47.158;7.346;2023-04-25T15:31:39;12.80;99.90
45983;DHT22;31711;47.158;7.346;2023-04-25T15:34:05;12.70;99.90
45983;DHT22;31711;47.158;7.346;2023-04-25T15:36:31;12.80;99.90
45983;DHT22;31711;47.158;7.346;2023-04-25T15:38:57;12.90;99.90
45983;DHT22;31711;47.158;7.346;2023-04-25T15:41:23;12.80;99.90
45983;DHT22;31711;47.158;7.346;2023-04-25T15:43:52;12.90;99.90
45983;DHT22;31711;47.158;7.346;2023-04-25T15:46:19;12.50;99.90
45983;DHT22;31711;47.158;7.346;2023-04-25T15:48:46;12.50;99.90
45983;DHT22;31711;47.158;7.346;2023-04-25T15:51:12;12.50;99.90
45983;DHT22;31711;47.158;7.346;2023-04-25T15:53:39;12.80;99.90
45983;DHT22;31711;47.158;7.346;2023-04-25T15:56:05;13.00;99.90
45983;DHT22;31711;47.158;7.346;2023-04-25T15:58:31;12.90;99.90
45983;DHT22;31711;47.158;7.346;2023-04-25T16:00:57;12.70;99.90
45983;DHT22;31711;47.158;7.346;2023-04-25T16:03:23;12.50;99.90
45983;DHT22;31711;47.158;7.346;2023-04-25T16:05:49;12.30;99.90
45983;DHT22;31711;47.158;7.346;2023-04-25T16:08:15;11.60;99.90
45983;DHT22;31711;47.158;7.346;2023-04-25T16:10:41;11.30;99.90
45983;DHT22;31711;47.158;7.346;2023-04-25T16:13:07;10.90;99.90
45983;DHT22;31711;47.158;7.346;2023-04-25T16:15:33;10.70;99.90
45983;DHT22;31711;47.158;7.346;2023-04-25T16:18:00;10.60;99.90
45983;DHT22;31711;47.158;7.346;2023-04-25T16:20:26;10.70;99.90
45983;DHT22;31711;47.158;7.346;2023-04-25T16:22:52;10.60;99.90
45983;DHT22;31711;47.158;7.346;2023-04-25T16:25:17;10.50;99.90
45983;DHT22;31711;47.158;7.346;2023-04-25T16:27:43;10.40;99.90
45983;DHT22;31711;47.158;7.346;2023-04-25T16:30:10;10.50;99.90
45983;DHT22;31711;47.158;7.346;2023-04-25T16:32:36;10.70;99.90
45983;DHT22;31711;47.158;7.346;2023-04-25T16:35:02;10.80;99.90
45983;DHT22;31711;47.158;7.346;2023-04-25T16:37:28;10.90;99.90
45983;DHT22;31711;47.158;7.346;2023-04-25T16:39:55;11.00;99.90
45983;DHT22;31711;47.158;7.346;2023-04-25T16:42:21;10.90;99.90
45983;DHT22;31711;47.158;7.346;2023-04-25T16:44:47;10.80;99.90
45983;DHT22;31711;47.158;7.346;2023-04-25T16:47:13;10.70;99.90
45983;DHT22;31711;47.158;7.346;2023-04-25T16:49:39;10.80;99.90
45983;DHT22;31711;47.158;7.346;2023-04-25T16:52:05;10.80;99.90
45983;DHT22;31711;47.158;7.346;2023-04-25T16:54:31;10.70;99.90
45983;DHT22;31711;47.158;7.346;2023-04-25T16:56:57;10.70;99.90